createdAt,value
2023-01-03T00:02:07.595Z,96429.03
2023-01-03T00:04:34.263Z,96424.56
2023-01-03T00:07:00.783Z,96423.75
2023-01-03T00:09:29.309Z,96431.13
2023-01-03T00:12:14.229Z,96430.78
2023-01-03T00:14:42.784Z,96437.34
2023-01-03T00:17:10.280Z,96431.53
2023-01-03T00:19:38.386Z,96431.38
2023-01-03T00:22:05.236Z,96433.84
2023-01-03T00:24:31.928Z,96430.22
2023-01-03T00:26:58.388Z,96438.13
2023-01-03T00:29:24.841Z,96443.22
2023-01-03T00:31:51.335Z,96437.94
2023-01-03T00:34:17.828Z,96446.38
2023-01-03T00:36:44.450Z,96441.31
2023-01-03T00:39:12.089Z,96448.56
2023-01-03T00:41:39.150Z,96456.31
2023-01-03T00:44:05.911Z,96460.75
2023-01-03T00:46:32.589Z,96468.47
2023-01-03T00:48:59.219Z,96473.75
2023-01-03T00:51:26.901Z,96478.19
2023-01-03T00:53:55.918Z,96483.47
2023-01-03T00:56:23.476Z,96478.19
2023-01-03T00:58:50.111Z,96482.00
2023-01-03T01:01:18.283Z,96492.91
2023-01-03T01:03:46.273Z,96480.53
2023-01-03T01:06:17.378Z,96485.78
2023-01-03T01:08:44.273Z,96487.66
2023-01-03T01:11:11.690Z,96488.69
2023-01-03T01:13:38.260Z,96484.22
2023-01-03T01:16:06.779Z,96493.31
2023-01-03T01:18:33.960Z,96498.41
2023-01-03T01:21:00.539Z,96484.91
2023-01-03T01:23:27.040Z,96499.72
2023-01-03T01:25:53.564Z,96494.63
2023-01-03T01:28:20.073Z,96492.66
2023-01-03T01:30:46.546Z,96493.47
2023-01-03T01:33:13.021Z,96492.47
2023-01-03T01:35:39.737Z,96479.97
2023-01-03T01:38:06.181Z,96475.69
2023-01-03T01:40:32.779Z,96482.13
2023-01-03T01:43:20.774Z,96486.91
2023-01-03T01:45:47.526Z,96484.75
2023-01-03T01:48:14.408Z,96480.97
2023-01-03T01:50:43.573Z,96486.22
2023-01-03T01:53:18.615Z,96492.31
2023-01-03T01:55:50.710Z,96490.31
2023-01-03T01:58:17.482Z,96490.16
2023-01-03T02:00:44.624Z,96483.91
2023-01-03T02:03:11.706Z,96482.25
2023-01-03T02:05:40.055Z,96480.31
2023-01-03T02:08:06.500Z,96481.63
2023-01-03T02:10:51.593Z,96490.38
2023-01-03T02:13:36.337Z,96487.56
2023-01-03T02:16:12.180Z,96480.50
2023-01-03T02:18:38.657Z,96482.28
2023-01-03T02:21:05.044Z,96478.81
2023-01-03T02:24:07.304Z,96485.44
2023-01-03T02:26:41.847Z,96490.88
2023-01-03T02:29:26.422Z,96492.69
2023-01-03T02:31:57.824Z,96492.81
2023-01-03T02:34:36.254Z,96495.75
2023-01-03T02:37:02.654Z,96479.63
2023-01-03T02:39:40.927Z,96483.06
2023-01-03T02:42:32.492Z,96490.81
2023-01-03T02:45:04.715Z,96502.97
2023-01-03T02:47:35.966Z,96503.13
2023-01-03T02:50:04.510Z,96503.31
2023-01-03T02:52:31.976Z,96511.03
2023-01-03T02:55:00.527Z,96508.22
2023-01-03T02:57:29.999Z,96502.47
2023-01-03T03:00:16.667Z,96498.03
2023-01-03T03:02:46.712Z,96513.84
2023-01-03T03:05:15.299Z,96517.47
2023-01-03T03:07:41.828Z,96509.41
2023-01-03T03:10:27.915Z,96517.13
2023-01-03T03:13:15.465Z,96524.72
2023-01-03T03:15:46.637Z,96532.50
2023-01-03T03:18:16.653Z,96524.59
2023-01-03T03:21:01.621Z,96526.41
2023-01-03T03:23:49.202Z,96520.28
2023-01-03T03:26:18.428Z,96529.69
2023-01-03T03:28:48.364Z,96531.97
2023-01-03T03:31:14.871Z,96539.22
2023-01-03T03:33:44.428Z,96533.63
2023-01-03T03:36:10.842Z,96531.63
2023-01-03T03:38:38.784Z,96534.91
2023-01-03T03:41:37.115Z,96533.94
2023-01-03T03:44:37.726Z,96531.31
2023-01-03T03:47:10.195Z,96528.50
2023-01-03T03:49:38.272Z,96534.09
2023-01-03T03:52:07.624Z,96532.97
2023-01-03T03:54:36.317Z,96540.88
2023-01-03T03:57:26.125Z,96524.72
2023-01-03T03:59:56.351Z,96525.38
2023-01-03T04:02:24.298Z,96524.56
2023-01-03T04:04:54.143Z,96528.69
2023-01-03T04:07:20.613Z,96526.06
2023-01-03T04:09:47.069Z,96515.34
2023-01-03T04:12:13.484Z,96521.44
2023-01-03T04:14:39.935Z,96518.50
2023-01-03T04:17:06.780Z,96533.94
2023-01-03T04:19:33.331Z,96536.59
2023-01-03T04:21:59.774Z,96545.31
2023-01-03T04:24:26.245Z,96543.34
2023-01-03T04:26:52.788Z,96540.88
2023-01-03T04:29:19.233Z,96547.78
2023-01-03T04:31:45.699Z,96551.41
2023-01-03T04:34:12.187Z,96553.03
2023-01-03T04:36:38.718Z,96558.31
2023-01-03T04:39:05.169Z,96548.78
2023-01-03T04:41:31.648Z,96542.50
2023-01-03T04:44:04.794Z,96547.28
2023-01-03T04:46:32.994Z,96545.66
2023-01-03T04:48:59.970Z,96557.16
2023-01-03T04:51:26.703Z,96546.81
2023-01-03T04:53:53.434Z,96550.44
2023-01-03T04:56:46.113Z,96546.81
2023-01-03T04:59:12.562Z,96547.16
2023-01-03T05:01:39.120Z,96549.13
2023-01-03T05:04:05.690Z,96553.72
2023-01-03T05:06:32.259Z,96558.38
2023-01-03T05:08:58.773Z,96565.25
2023-01-03T05:11:25.262Z,96556.72
2023-01-03T05:13:51.701Z,96564.59
2023-01-03T05:16:18.237Z,96564.78
2023-01-03T05:18:44.901Z,96558.69
2023-01-03T05:21:32.205Z,96558.69
2023-01-03T05:24:16.899Z,96559.69
2023-01-03T05:26:43.880Z,96564.47
2023-01-03T05:29:11.697Z,96568.22
2023-01-03T05:31:38.226Z,96575.16
2023-01-03T05:34:04.870Z,96580.44
2023-01-03T05:36:31.480Z,96583.06
2023-01-03T05:38:57.957Z,96586.19
2023-01-03T05:41:43.022Z,96596.25
2023-01-03T05:44:09.457Z,96590.31
2023-01-03T05:46:36.098Z,96600.84
2023-01-03T05:49:02.629Z,96599.19
2023-01-03T05:51:29.113Z,96599.50
2023-01-03T05:53:55.564Z,96604.78
2023-01-03T05:56:22.062Z,96610.38
2023-01-03T05:58:49.202Z,96611.34
2023-01-03T06:01:16.021Z,96610.69
2023-01-03T06:03:46.687Z,96610.03
2023-01-03T06:06:14.224Z,96607.72
2023-01-03T06:08:41.267Z,96615.94
2023-01-03T06:11:12.146Z,96615.28
2023-01-03T06:13:38.996Z,96620.56
2023-01-03T06:16:25.405Z,96615.28
2023-01-03T06:18:51.982Z,96608.88
2023-01-03T06:21:18.526Z,96612.63
2023-01-03T06:23:47.772Z,96616.28
2023-01-03T06:26:15.183Z,96618.56
2023-01-03T06:28:41.707Z,96631.56
2023-01-03T06:31:08.550Z,96635.00
2023-01-03T06:33:35.369Z,96636.00
2023-01-03T06:36:02.747Z,96635.66
2023-01-03T06:38:29.175Z,96642.88
2023-01-03T06:40:55.602Z,96633.34
2023-01-03T06:43:22.109Z,96649.63
2023-01-03T06:46:07.177Z,96649.97
2023-01-03T06:48:52.370Z,96646.19
2023-01-03T06:51:39.374Z,96648.50
2023-01-03T06:54:07.159Z,96656.06
2023-01-03T06:56:33.659Z,96659.03
2023-01-03T06:59:00.089Z,96654.56
2023-01-03T07:01:26.700Z,96662.97
2023-01-03T07:03:53.366Z,96662.63
2023-01-03T07:06:19.809Z,96652.09
2023-01-03T07:08:48.684Z,96670.50
2023-01-03T07:11:15.276Z,96669.34
2023-01-03T07:14:00.149Z,96677.91
2023-01-03T07:16:28.105Z,96666.56
2023-01-03T07:18:55.690Z,96668.22
2023-01-03T07:21:26.690Z,96671.81
2023-01-03T07:23:53.999Z,96676.78
2023-01-03T07:26:20.744Z,96686.78
2023-01-03T07:28:47.312Z,96688.25
2023-01-03T07:31:13.786Z,96692.22
2023-01-03T07:33:40.268Z,96687.78
2023-01-03T07:36:11.801Z,96691.91
2023-01-03T07:38:39.313Z,96686.31
2023-01-03T07:41:08.223Z,96694.06
2023-01-03T07:43:38.455Z,96687.63
2023-01-03T07:46:25.223Z,96684.69
2023-01-03T07:48:52.704Z,96692.22
2023-01-03T07:51:20.150Z,96702.44
2023-01-03T07:53:46.579Z,96705.06
2023-01-03T07:56:14.136Z,96701.78
2023-01-03T07:58:41.418Z,96709.69
2023-01-03T08:01:08.739Z,96720.38
2023-01-03T08:03:36.216Z,96718.88
2023-01-03T08:06:04.573Z,96730.06
2023-01-03T08:08:31.287Z,96737.47
2023-01-03T08:11:16.407Z,96742.59
2023-01-03T08:13:42.912Z,96735.66
2023-01-03T08:16:11.364Z,96737.00
2023-01-03T08:18:38.770Z,96746.69
2023-01-03T08:21:05.295Z,96751.66
2023-01-03T08:23:31.719Z,96751.50
2023-01-03T08:26:06.058Z,96747.72
2023-01-03T08:28:32.815Z,96755.78
2023-01-03T08:31:00.498Z,96749.34
2023-01-03T08:33:28.011Z,96751.13
2023-01-03T08:36:02.149Z,96745.34
2023-01-03T08:38:35.139Z,96751.44
2023-01-03T08:41:02.986Z,96752.78
2023-01-03T08:43:33.211Z,96760.22
2023-01-03T08:45:59.684Z,96765.78
2023-01-03T08:48:26.247Z,96767.44
2023-01-03T08:50:52.701Z,96773.53
2023-01-03T08:53:19.202Z,96780.59
2023-01-03T08:55:45.762Z,96780.59
2023-01-03T08:58:12.217Z,96782.09
2023-01-03T09:00:38.835Z,96780.66
2023-01-03T09:03:05.576Z,96779.97
2023-01-03T09:05:32.288Z,96775.22
2023-01-03T09:07:58.971Z,96779.81
2023-01-03T09:10:26.047Z,96780.16
2023-01-03T09:12:52.575Z,96782.28
2023-01-03T09:15:19.269Z,96783.13
2023-01-03T09:17:47.388Z,96783.94
2023-01-03T09:20:14.608Z,96780.47
2023-01-03T09:22:41.175Z,96780.81
2023-01-03T09:25:07.967Z,96782.94
2023-01-03T09:27:34.742Z,96786.59
2023-01-03T09:30:01.229Z,96785.41
2023-01-03T09:32:27.716Z,96780.31
2023-01-03T09:34:54.163Z,96781.66
2023-01-03T09:37:20.624Z,96782.78
2023-01-03T09:39:47.068Z,96779.97
2023-01-03T09:42:40.656Z,96778.19
2023-01-03T09:45:08.037Z,96769.00
2023-01-03T09:47:36.231Z,96767.50
2023-01-03T09:53:08.399Z,96766.34
2023-01-03T09:55:59.649Z,96766.84
2023-01-03T09:58:44.437Z,96761.41
2023-01-03T10:01:36.824Z,96764.84
2023-01-03T10:04:05.499Z,96769.00
2023-01-03T10:06:47.466Z,96761.41
2023-01-03T10:09:16.925Z,96763.38
2023-01-03T10:12:19.035Z,96760.59
2023-01-03T10:14:48.115Z,96758.13
2023-01-03T10:17:14.539Z,96755.81
2023-01-03T10:19:40.989Z,96758.13
2023-01-03T10:22:12.923Z,96764.03
2023-01-03T10:24:46.913Z,96766.69
2023-01-03T10:27:13.774Z,96760.75
2023-01-03T10:29:40.327Z,96763.06
2023-01-03T10:32:19.104Z,96755.97
2023-01-03T10:35:05.510Z,96754.34
2023-01-03T10:37:31.952Z,96755.00
2023-01-03T10:40:02.701Z,96761.91
2023-01-03T10:42:31.070Z,96754.66
2023-01-03T10:45:00.609Z,96763.69
2023-01-03T10:47:27.374Z,96759.75
2023-01-03T10:50:01.189Z,96769.00
2023-01-03T10:52:47.948Z,96769.66
2023-01-03T10:55:18.578Z,96771.91
2023-01-03T10:57:48.655Z,96755.78
2023-01-03T11:00:23.089Z,96766.63
2023-01-03T11:02:50.465Z,96764.50
2023-01-03T11:05:26.624Z,96756.09
2023-01-03T11:07:53.069Z,96749.47
2023-01-03T11:10:19.571Z,96752.13
2023-01-03T11:12:49.229Z,96754.59
2023-01-03T11:15:35.957Z,96746.19
2023-01-03T11:18:06.660Z,96750.28
2023-01-03T11:20:38.351Z,96750.09
2023-01-03T11:23:08.729Z,96740.88
2023-01-03T11:25:51.531Z,96749.28
2023-01-03T11:28:20.702Z,96747.78
2023-01-03T11:30:47.205Z,96741.81
2023-01-03T11:33:35.135Z,96735.56
2023-01-03T11:36:07.017Z,96745.13
2023-01-03T11:38:39.681Z,96735.22
2023-01-03T11:41:12.188Z,96736.84
2023-01-03T11:43:50.974Z,96730.59
2023-01-03T11:46:20.552Z,96727.44
2023-01-03T11:48:49.816Z,96724.63
2023-01-03T11:51:19.355Z,96727.94
2023-01-03T11:54:05.398Z,96731.56
2023-01-03T11:56:37.462Z,96722.31
2023-01-03T11:59:10.411Z,96726.91
2023-01-03T12:01:55.504Z,96722.91
2023-01-03T12:04:49.779Z,96732.31
2023-01-03T12:10:23.647Z,96722.56
2023-01-03T12:12:53.141Z,96725.84
2023-01-03T12:15:22.680Z,96729.69
2023-01-03T12:17:58.334Z,96720.56
2023-01-03T12:20:28.009Z,96716.31
2023-01-03T12:22:57.716Z,96724.41
2023-01-03T12:25:31.047Z,96723.56
2023-01-03T12:27:57.517Z,96727.53
2023-01-03T12:30:29.097Z,96731.13
2023-01-03T12:32:57.136Z,96726.16
2023-01-03T12:35:33.108Z,96730.78
2023-01-03T12:37:59.511Z,96724.88
2023-01-03T12:40:34.356Z,96730.78
2023-01-03T12:43:10.179Z,96719.91
2023-01-03T12:45:38.779Z,96728.47
2023-01-03T12:48:20.244Z,96718.72
2023-01-03T12:50:51.600Z,96715.59
2023-01-03T12:53:26.143Z,96707.81
2023-01-03T12:55:55.648Z,96714.44
2023-01-03T12:58:41.981Z,96712.63
2023-01-03T13:01:15.820Z,96713.78
2023-01-03T13:03:45.893Z,96710.31
2023-01-03T13:06:15.121Z,96708.50
2023-01-03T13:08:41.588Z,96709.00
2023-01-03T13:11:13.652Z,96720.69
2023-01-03T13:13:48.319Z,96719.91
2023-01-03T13:16:33.605Z,96727.28
2023-01-03T13:19:18.695Z,96718.59
2023-01-03T13:21:54.229Z,96726.34
2023-01-03T13:24:39.371Z,96720.56
2023-01-03T13:27:18.063Z,96717.75
2023-01-03T13:29:53.969Z,96707.38
2023-01-03T13:32:20.432Z,96711.63
2023-01-03T13:34:59.055Z,96715.91
2023-01-03T13:37:37.805Z,96717.09
2023-01-03T13:40:13.533Z,96707.19
2023-01-03T13:42:40.224Z,96709.81
2023-01-03T13:45:15.912Z,96717.38
2023-01-03T13:47:48.923Z,96713.25
2023-01-03T13:50:22.602Z,96722.44
2023-01-03T13:53:03.831Z,96723.63
2023-01-03T13:55:33.118Z,96717.81
2023-01-03T13:58:00.195Z,96724.09
2023-01-03T14:00:27.099Z,96725.44
2023-01-03T14:02:53.753Z,96732.34
2023-01-03T14:05:46.870Z,96733.03
2023-01-03T14:08:31.930Z,96743.00
2023-01-03T14:11:20.377Z,96743.66
2023-01-03T14:13:46.910Z,96739.91
2023-01-03T14:16:27.840Z,96737.75
2023-01-03T14:19:00.619Z,96734.66
2023-01-03T14:21:31.287Z,96744.38
2023-01-03T14:24:00.693Z,96739.09
2023-01-03T14:26:28.384Z,96739.91
2023-01-03T14:28:55.928Z,96735.44
2023-01-03T14:31:24.240Z,96737.09
2023-01-03T14:33:53.854Z,96734.28
2023-01-03T14:36:20.370Z,96737.09
2023-01-03T14:38:51.437Z,96739.09
2023-01-03T14:41:26.250Z,96736.47
2023-01-03T14:44:18.781Z,96735.63
2023-01-03T14:46:53.430Z,96739.91
2023-01-03T14:49:20.017Z,96744.38
2023-01-03T14:51:46.783Z,96738.75
2023-01-03T14:54:16.531Z,96745.69
2023-01-03T14:56:44.916Z,96746.84
2023-01-03T14:59:13.281Z,96748.34
2023-01-03T15:01:39.999Z,96742.56
2023-01-03T15:04:06.659Z,96752.50
2023-01-03T15:06:33.204Z,96752.03
2023-01-03T15:09:01.612Z,96760.09
2023-01-03T15:11:33.268Z,96762.91
2023-01-03T15:13:59.735Z,96762.44
2023-01-03T15:16:26.851Z,96768.25
2023-01-03T15:19:01.148Z,96768.44
2023-01-03T15:21:29.340Z,96765.94
2023-01-03T15:23:56.430Z,96769.91
2023-01-03T15:26:27.846Z,96770.75
2023-01-03T15:29:14.605Z,96763.00
2023-01-03T15:31:46.881Z,96774.56
2023-01-03T15:34:20.486Z,96775.53
2023-01-03T15:37:07.173Z,96777.53
2023-01-03T15:39:45.062Z,96784.78
2023-01-03T15:42:44.545Z,96788.22
2023-01-03T15:45:15.802Z,96793.66
2023-01-03T15:47:42.943Z,96798.28
2023-01-03T15:50:18.819Z,96799.63
2023-01-03T15:52:46.048Z,96791.03
2023-01-03T15:55:12.953Z,96788.41
2023-01-03T15:57:39.576Z,96797.28
2023-01-03T16:00:08.313Z,96800.91
2023-01-03T16:02:35.026Z,96805.34
2023-01-03T16:05:01.723Z,96799.44
2023-01-03T16:07:28.187Z,96803.22
2023-01-03T16:09:54.624Z,96806.03
2023-01-03T16:12:22.636Z,96800.25
2023-01-03T16:14:50.997Z,96802.22
2023-01-03T16:17:24.594Z,96804.38
2023-01-03T16:19:51.482Z,96810.81
2023-01-03T16:22:35.762Z,96815.41
2023-01-03T16:25:03.511Z,96818.38
2023-01-03T16:27:29.941Z,96814.25
2023-01-03T16:29:56.411Z,96813.41
2023-01-03T16:32:24.734Z,96821.81
2023-01-03T16:34:51.424Z,96825.59
2023-01-03T16:37:17.854Z,96830.38
2023-01-03T16:39:48.332Z,96826.91
2023-01-03T16:42:15.612Z,96839.06
2023-01-03T16:44:43.246Z,96830.38
2023-01-03T16:47:30.879Z,96825.25
2023-01-03T16:50:02.514Z,96828.88
2023-01-03T16:52:33.271Z,96833.66
2023-01-03T16:55:13.090Z,96841.88
2023-01-03T16:57:39.537Z,96842.38
2023-01-03T17:00:14.161Z,96842.66
2023-01-03T17:02:40.668Z,96846.28
2023-01-03T17:05:07.333Z,96844.78
2023-01-03T17:07:33.806Z,96848.41
2023-01-03T17:10:00.332Z,96843.47
2023-01-03T17:12:26.898Z,96859.41
2023-01-03T17:14:53.411Z,96857.38
2023-01-03T17:17:21.044Z,96857.06
2023-01-03T17:20:05.289Z,96850.69
2023-01-03T17:22:32.518Z,96846.41
2023-01-03T17:24:59.012Z,96846.53
2023-01-03T17:27:32.090Z,96848.50
2023-01-03T17:30:01.847Z,96864.28
2023-01-03T17:32:28.587Z,96853.13
2023-01-03T17:34:55.023Z,96864.44
2023-01-03T17:37:21.930Z,96861.00
2023-01-03T17:39:56.231Z,96851.59
2023-01-03T17:42:23.511Z,96857.03
2023-01-03T17:45:08.829Z,96852.25
2023-01-03T17:48:01.026Z,96858.31
2023-01-03T17:50:29.280Z,96861.78
2023-01-03T17:52:56.589Z,96861.28
2023-01-03T17:55:30.096Z,96859.81
2023-01-03T17:57:57.329Z,96865.19
2023-01-03T18:00:27.565Z,96861.41
2023-01-03T18:02:54.749Z,96856.44
2023-01-03T18:05:27.550Z,96854.13
2023-01-03T18:07:58.672Z,96860.72
2023-01-03T18:10:41.822Z,96859.88
2023-01-03T18:13:19.865Z,96860.19
2023-01-03T18:15:46.415Z,96864.78
2023-01-03T18:18:15.259Z,96858.84
2023-01-03T18:20:41.807Z,96868.69
2023-01-03T18:23:31.444Z,96869.69
2023-01-03T18:26:10.289Z,96873.59
2023-01-03T18:28:36.723Z,96867.50
2023-01-03T18:31:03.246Z,96860.78
2023-01-03T18:33:29.775Z,96868.97
2023-01-03T18:35:56.316Z,96866.50
2023-01-03T18:38:25.433Z,96867.31
2023-01-03T18:40:54.167Z,96869.28
2023-01-03T18:43:23.887Z,96879.16
2023-01-03T18:45:50.895Z,96875.69
2023-01-03T18:48:18.637Z,96869.44
2023-01-03T18:50:46.782Z,96873.72
2023-01-03T18:53:18.058Z,96871.84
2023-01-03T18:55:44.839Z,96881.84
2023-01-03T18:58:23.303Z,96877.75
2023-01-03T19:00:49.726Z,96880.22
2023-01-03T19:03:24.518Z,96881.34
2023-01-03T19:05:51.894Z,96877.31
2023-01-03T19:08:19.643Z,96881.31
2023-01-03T19:10:46.378Z,96867.06
2023-01-03T19:13:22.771Z,96869.69
2023-01-03T19:15:49.328Z,96883.34
2023-01-03T19:18:16.266Z,96879.06
2023-01-03T19:20:42.931Z,96881.03
2023-01-03T19:23:09.479Z,96876.91
2023-01-03T19:25:35.976Z,96883.59
2023-01-03T19:28:04.404Z,96877.81
2023-01-03T19:30:37.514Z,96876.69
2023-01-03T19:33:05.400Z,96876.38
2023-01-03T19:35:31.835Z,96872.94
2023-01-03T19:37:58.327Z,96875.25
2023-01-03T19:40:27.303Z,96871.97
2023-01-03T19:42:55.425Z,96875.84
2023-01-03T19:45:21.921Z,96888.31
2023-01-03T19:47:48.381Z,96887.50
2023-01-03T19:50:22.467Z,96886.69
2023-01-03T19:52:49.146Z,96885.63
2023-01-03T19:55:16.207Z,96880.84
2023-01-03T19:57:43.681Z,96888.13
2023-01-03T20:00:16.397Z,96889.09
2023-01-03T20:02:43.115Z,96892.03
2023-01-03T20:05:21.455Z,96891.03
2023-01-03T20:07:48.952Z,96892.72
2023-01-03T20:10:16.693Z,96894.97
2023-01-03T20:12:43.160Z,96893.28
2023-01-03T20:15:18.372Z,96881.16
2023-01-03T20:17:44.849Z,96886.41
2023-01-03T20:20:11.910Z,96888.66
2023-01-03T20:23:04.136Z,96879.25
2023-01-03T20:25:32.157Z,96891.75
2023-01-03T20:27:59.110Z,96894.22
2023-01-03T20:30:27.039Z,96889.25
2023-01-03T20:32:53.557Z,96891.09
2023-01-03T20:38:10.664Z,96897.84
2023-01-03T20:40:37.203Z,96897.47
2023-01-03T20:43:05.452Z,96898.69
2023-01-03T20:45:32.335Z,96891.63
2023-01-03T20:47:59.488Z,96895.22
2023-01-03T20:50:27.184Z,96896.34
2023-01-03T20:52:53.971Z,96898.13
2023-01-03T20:55:21.712Z,96894.84
2023-01-03T20:57:48.745Z,96892.22
2023-01-03T21:00:29.817Z,96893.34
2023-01-03T21:02:56.454Z,96903.09
2023-01-03T21:05:23.416Z,96892.63
2023-01-03T21:08:08.995Z,96900.63
2023-01-03T21:10:39.589Z,96904.78
2023-01-03T21:13:06.595Z,96905.16
2023-01-03T21:15:33.624Z,96910.75
2023-01-03T21:18:00.462Z,96914.19
2023-01-03T21:20:28.583Z,96920.78
2023-01-03T21:22:55.097Z,96913.59
2023-01-03T21:25:24.599Z,96921.38
2023-01-03T21:27:51.133Z,96921.22
2023-01-03T21:30:18.620Z,96922.34
2023-01-03T21:32:45.452Z,96923.00
2023-01-03T21:35:16.155Z,96928.25
2023-01-03T21:37:43.114Z,96924.97
2023-01-03T21:40:19.712Z,96922.22
2023-01-03T21:43:05.746Z,96918.75
2023-01-03T21:45:40.450Z,96924.16
2023-01-03T21:48:09.246Z,96923.16
2023-01-03T21:50:38.050Z,96919.22
2023-01-03T21:53:04.697Z,96928.06
2023-01-03T21:55:31.388Z,96929.72
2023-01-03T21:57:58.165Z,96928.06
2023-01-03T22:00:24.752Z,96927.53
2023-01-03T22:03:09.962Z,96928.63
2023-01-03T22:05:36.427Z,96925.59
2023-01-03T22:08:02.974Z,96932.81
2023-01-03T22:10:30.354Z,96929.50
2023-01-03T22:12:56.846Z,96929.25
2023-01-03T22:15:24.619Z,96934.66
2023-01-03T22:17:51.319Z,96936.03
2023-01-03T22:20:18.526Z,96946.66
2023-01-03T22:22:45.380Z,96940.59
2023-01-03T22:25:13.552Z,96939.75
2023-01-03T22:27:40.006Z,96942.06
2023-01-03T22:30:07.483Z,96948.00
2023-01-03T22:32:34.219Z,96941.69
2023-01-03T22:35:00.712Z,96949.69
2023-01-03T22:37:27.170Z,96942.78
2023-01-03T22:39:53.709Z,96950.25
2023-01-03T22:42:20.297Z,96942.41
2023-01-03T22:44:46.757Z,96944.59
2023-01-03T22:47:13.240Z,96954.66
2023-01-03T22:49:40.140Z,96951.22
2023-01-03T22:52:06.742Z,96948.34
2023-01-03T22:54:35.250Z,96948.19
2023-01-03T22:57:02.281Z,96950.25
2023-01-03T22:59:30.391Z,96955.50
2023-01-03T23:01:57.617Z,96947.78
2023-01-03T23:04:26.353Z,96943.50
2023-01-03T23:06:53.892Z,96941.16
2023-01-03T23:09:20.922Z,96936.06
2023-01-03T23:12:06.231Z,96932.91
2023-01-03T23:14:32.821Z,96937.84
2023-01-03T23:17:19.685Z,96935.63
2023-01-03T23:19:46.655Z,96929.59
2023-01-03T23:22:13.161Z,96930.25
2023-01-03T23:24:39.685Z,96926.81
2023-01-03T23:27:06.358Z,96935.09
2023-01-03T23:29:32.937Z,96938.16
2023-01-03T23:32:00.683Z,96933.34
2023-01-03T23:34:27.102Z,96935.13
2023-01-03T23:36:53.544Z,96934.28
2023-01-03T23:39:20.063Z,96930.16
2023-01-03T23:41:46.778Z,96941.34
2023-01-03T23:44:13.255Z,96935.94
2023-01-03T23:46:40.071Z,96940.09
2023-01-03T23:49:06.591Z,96945.06
2023-01-03T23:51:33.066Z,96948.22
2023-01-03T23:53:59.542Z,96948.91
2023-01-03T23:56:26.009Z,96946.28
2023-01-03T23:58:52.852Z,96943.66
